sensor_id;sensor_type;location;lat;lon;timestamp;pressure;altitude;pressure_sealevel;temperature;humidity
30343;BME280;17145;49.902;8.680;'2023-05-02 01:58:01';100130;;;15;42
30343;BME280;17145;49.902;8.680;'2023-05-02 02:00:29';100140;;;14;42
30343;BME280;17145;49.902;8.680;'2023-05-02 02:02:57';100130;;;15;41
30343;BME280;17145;49.902;8.680;'2023-05-02 02:05:25';100130;;;14;42
30343;BME280;17145;49.902;8.680;'2023-05-02 02:07:52';100130;;;14;42
30343;BME280;17145;49.902;8.680;'2023-05-02 02:10:20';100130;;;14;42
30343;BME280;17145;49.902;8.680;'2023-05-02 02:12:47';100140;;;14;42
30343;BME280;17145;49.902;8.680;'2023-05-02 02:15:14';100140;;;14;42
30343;BME280;17145;49.902;8.680;'2023-05-02 02:17:42';100140;;;14;42
30343;BME280;17145;49.902;8.680;'2023-05-02 02:20:11';100140;;;14;42
30343;BME280;17145;49.902;8.680;'2023-05-02 02:22:38';100140;;;14;42
30343;BME280;17145;49.902;8.680;'2023-05-02 02:25:07';100140;;;14;42
30343;BME280;17145;49.902;8.680;'2023-05-02 02:27:34';100140;;;14;41
30343;BME280;17145;49.902;8.680;'2023-05-02 02:30:02';100140;;;14;41
30343;BME280;17145;49.902;8.680;'2023-05-02 02:32:29';100140;;;14;41
30343;BME280;17145;49.902;8.680;'2023-05-02 02:34:57';100140;;;14;41
30343;BME280;17145;49.902;8.680;'2023-05-02 02:37:26';100140;;;14;41
30343;BME280;17145;49.902;8.680;'2023-05-02 02:39:53';100140;;;14;41
30343;BME280;17145;49.902;8.680;'2023-05-02 02:42:20';100140;;;14;42
30343;BME280;17145;49.902;8.680;'2023-05-02 02:44:48';100140;;;14;42
30343;BME280;17145;49.902;8.680;'2023-05-02 02:47:15';100140;;;14;42
30343;BME280;17145;49.902;8.680;'2023-05-02 02:49:42';100150;;;14;41
30343;BME280;17145;49.902;8.680;'2023-05-02 02:52:10';100150;;;14;42
30343;BME280;17145;49.902;8.680;'2023-05-02 02:54:37';100150;;;14;42
30343;BME280;17145;49.902;8.680;'2023-05-02 02:57:05';100150;;;14;42
30343;BME280;17145;49.902;8.680;'2023-05-02 02:59:34';100150;;;14;42
30343;BME280;17145;49.902;8.680;'2023-05-02 03:02:12';100150;;;14;42
30343;BME280;17145;49.902;8.680;'2023-05-02 03:04:49';100160;;;14;43
30343;BME280;17145;49.902;8.680;'2023-05-02 03:07:32';100160;;;13;43
30343;BME280;17145;49.902;8.680;'2023-05-02 03:10:08';100160;;;13;43
30343;BME280;17145;49.902;8.680;'2023-05-02 03:12:41';100160;;;13;43
30343;BME280;17145;49.902;8.680;'2023-05-02 03:15:15';100170;;;13;43
30343;BME280;17145;49.902;8.680;'2023-05-02 03:17:45';100170;;;13;43
30343;BME280;17145;49.902;8.680;'2023-05-02 03:20:18';100170;;;13;43
30343;BME280;17145;49.902;8.680;'2023-05-02 03:22:47';100170;;;13;43
30343;BME280;17145;49.902;8.680;'2023-05-02 03:25:25';100180;;;13;43
30343;BME280;17145;49.902;8.680;'2023-05-02 03:28:05';100180;;;13;44
30343;BME280;17145;49.902;8.680;'2023-05-02 03:30:37';100180;;;13;44
30343;BME280;17145;49.902;8.680;'2023-05-02 03:33:06';100190;;;13;44
30343;BME280;17145;49.902;8.680;'2023-05-02 03:35:36';100190;;;13;44
30343;BME280;17145;49.902;8.680;'2023-05-02 03:38:05';100190;;;13;44
30343;BME280;17145;49.902;8.680;'2023-05-02 03:40:33';100190;;;13;44
30343;BME280;17145;49.902;8.680;'2023-05-02 03:43:04';100190;;;13;44
30343;BME280;17145;49.902;8.680;'2023-05-02 03:45:36';100200;;;13;44
30343;BME280;17145;49.902;8.680;'2023-05-02 03:48:07';100200;;;13;44
30343;BME280;17145;49.902;8.680;'2023-05-02 03:50:36';100200;;;13;44
30343;BME280;17145;49.902;8.680;'2023-05-02 03:53:06';100210;;;13;45
30343;BME280;17145;49.902;8.680;'2023-05-02 03:55:37';100220;;;13;45
30343;BME280;17145;49.902;8.680;'2023-05-02 03:58:06';100220;;;13;45
30343;BME280;17145;49.902;8.680;'2023-05-02 04:00:35';100220;;;12;45
30343;BME280;17145;49.902;8.680;'2023-05-02 04:03:05';100220;;;12;45
30343;BME280;17145;49.902;8.680;'2023-05-02 04:05:36';100230;;;12;46
30343;BME280;17145;49.902;8.680;'2023-05-02 04:08:04';100230;;;12;46
30343;BME280;17145;49.902;8.680;'2023-05-02 04:10:39';100230;;;12;45
30343;BME280;17145;49.902;8.680;'2023-05-02 04:13:15';100240;;;12;46
30343;BME280;17145;49.902;8.680;'2023-05-02 04:15:46';100240;;;12;46
30343;BME280;17145;49.902;8.680;'2023-05-02 04:18:20';100240;;;12;46
30343;BME280;17145;49.902;8.680;'2023-05-02 04:20:49';100240;;;12;47
30343;BME280;17145;49.902;8.680;'2023-05-02 04:23:20';100240;;;12;46
30343;BME280;17145;49.902;8.680;'2023-05-02 04:25:51';100250;;;12;46
30343;BME280;17145;49.902;8.680;'2023-05-02 04:28:18';100250;;;12;47
30343;BME280;17145;49.902;8.680;'2023-05-02 04:30:46';100250;;;12;47
30343;BME280;17145;49.902;8.680;'2023-05-02 04:33:13';100250;;;12;47
30343;BME280;17145;49.902;8.680;'2023-05-02 04:35:45';100250;;;12;47
30343;BME280;17145;49.902;8.680;'2023-05-02 04:38:22';100250;;;12;47
30343;BME280;17145;49.902;8.680;'2023-05-02 04:40:56';100250;;;12;47
30343;BME280;17145;49.902;8.680;'2023-05-02 04:43:32';100250;;;12;47
30343;BME280;17145;49.902;8.680;'2023-05-02 04:46:13';100250;;;12;47
30343;BME280;17145;49.902;8.680;'2023-05-02 04:48:49';100260;;;12;47
30343;BME280;17145;49.902;8.680;'2023-05-02 04:51:27';100260;;;12;48
30343;BME280;17145;49.902;8.680;'2023-05-02 04:54:00';100270;;;12;48
30343;BME280;17145;49.902;8.680;'2023-05-02 04:56:33';100270;;;12;48
30343;BME280;17145;49.902;8.680;'2023-05-02 04:59:08';100270;;;12;48
30343;BME280;17145;49.902;8.680;'2023-05-02 05:01:40';100270;;;12;48
30343;BME280;17145;49.902;8.680;'2023-05-02 05:04:10';100270;;;11;48
30343;BME280;17145;49.902;8.680;'2023-05-02 05:06:38';100270;;;11;48
30343;BME280;17145;49.902;8.680;'2023-05-02 05:09:10';100280;;;11;48
30343;BME280;17145;49.902;8.680;'2023-05-02 05:11:38';100280;;;11;48
30343;BME280;17145;49.902;8.680;'2023-05-02 05:14:05';100280;;;11;48
30343;BME280;17145;49.902;8.680;'2023-05-02 05:16:35';100290;;;11;49
30343;BME280;17145;49.902;8.680;'2023-05-02 05:19:03';100300;;;11;49
30343;BME280;17145;49.902;8.680;'2023-05-02 05:21:31';100290;;;11;49
30343;BME280;17145;49.902;8.680;'2023-05-02 05:23:59';100290;;;11;49
30343;BME280;17145;49.902;8.680;'2023-05-02 05:26:27';100290;;;11;49
30343;BME280;17145;49.902;8.680;'2023-05-02 05:28:55';100300;;;11;49
30343;BME280;17145;49.902;8.680;'2023-05-02 05:31:22';100300;;;11;49
30343;BME280;17145;49.902;8.680;'2023-05-02 05:33:49';100300;;;11;49
30343;BME280;17145;49.902;8.680;'2023-05-02 05:36:17';100300;;;11;49
30343;BME280;17145;49.902;8.680;'2023-05-02 05:38:44';100300;;;11;50
30343;BME280;17145;49.902;8.680;'2023-05-02 05:41:11';100310;;;11;50
30343;BME280;17145;49.902;8.680;'2023-05-02 05:43:39';100310;;;11;49
30343;BME280;17145;49.902;8.680;'2023-05-02 05:46:08';100320;;;11;50
30343;BME280;17145;49.902;8.680;'2023-05-02 05:48:35';100320;;;11;50
30343;BME280;17145;49.902;8.680;'2023-05-02 05:51:05';100320;;;11;50
30343;BME280;17145;49.902;8.680;'2023-05-02 05:53:32';100330;;;11;50
30343;BME280;17145;49.902;8.680;'2023-05-02 05:56:00';100340;;;11;50
30343;BME280;17145;49.902;8.680;'2023-05-02 05:58:27';100350;;;11;50
30343;BME280;17145;49.902;8.680;'2023-05-02 06:00:55';100350;;;12;50
30343;BME280;17145;49.902;8.680;'2023-05-02 06:03:22';100350;;;11;50
30343;BME280;17145;49.902;8.680;'2023-05-02 06:05:49';100340;;;11;50
30343;BME280;17145;49.902;8.680;'2023-05-02 06:08:17';100340;;;11;50
30343;BME280;17145;49.902;8.680;'2023-05-02 06:10:45';100340;;;12;50
30343;BME280;17145;49.902;8.680;'2023-05-02 06:13:12';100340;;;12;49
30343;BME280;17145;49.902;8.680;'2023-05-02 06:15:40';100350;;;12;49
30343;BME280;17145;49.902;8.680;'2023-05-02 06:18:07';100350;;;12;49
30343;BME280;17145;49.902;8.680;'2023-05-02 06:20:34';100360;;;11;50
30343;BME280;17145;49.902;8.680;'2023-05-02 06:23:02';100360;;;12;49
30343;BME280;17145;49.902;8.680;'2023-05-02 06:25:29';100360;;;12;49
30343;BME280;17145;49.902;8.680;'2023-05-02 06:27:57';100360;;;11;49
30343;BME280;17145;49.902;8.680;'2023-05-02 06:30:24';100370;;;12;49
30343;BME280;17145;49.902;8.680;'2023-05-02 06:32:51';100370;;;11;50
30343;BME280;17145;49.902;8.680;'2023-05-02 06:35:19';100380;;;12;50
30343;BME280;17145;49.902;8.680;'2023-05-02 06:37:46';100380;;;12;50
30343;BME280;17145;49.902;8.680;'2023-05-02 06:40:14';100390;;;12;50
30343;BME280;17145;49.902;8.680;'2023-05-02 06:42:41';100390;;;12;50
30343;BME280;17145;49.902;8.680;'2023-05-02 06:45:09';100400;;;12;50
30343;BME280;17145;49.902;8.680;'2023-05-02 06:47:36';100400;;;11;50
30343;BME280;17145;49.902;8.680;'2023-05-02 06:50:05';100410;;;12;50
30343;BME280;17145;49.902;8.680;'2023-05-02 06:52:32';100410;;;12;50
30343;BME280;17145;49.902;8.680;'2023-05-02 06:55:00';100410;;;12;50
30343;BME280;17145;49.902;8.680;'2023-05-02 06:57:27';100420;;;12;50
30343;BME280;17145;49.902;8.680;'2023-05-02 06:59:54';100420;;;12;50
30343;BME280;17145;49.902;8.680;'2023-05-02 07:02:22';100430;;;12;50
30343;BME280;17145;49.902;8.680;'2023-05-02 07:04:49';100430;;;12;50
30343;BME280;17145;49.902;8.680;'2023-05-02 07:07:16';100430;;;12;50
30343;BME280;17145;49.902;8.680;'2023-05-02 07:09:44';100440;;;12;50
30343;BME280;17145;49.902;8.680;'2023-05-02 07:12:11';100440;;;12;50
30343;BME280;17145;49.902;8.680;'2023-05-02 07:14:38';100450;;;12;50
30343;BME280;17145;49.902;8.680;'2023-05-02 07:17:06';100440;;;12;50
30343;BME280;17145;49.902;8.680;'2023-05-02 07:19:33';100450;;;12;50
30343;BME280;17145;49.902;8.680;'2023-05-02 07:22:01';100450;;;12;50
30343;BME280;17145;49.902;8.680;'2023-05-02 07:24:28';100460;;;12;50
30343;BME280;17145;49.902;8.680;'2023-05-02 07:26:56';100460;;;12;50
30343;BME280;17145;49.902;8.680;'2023-05-02 07:29:23';100460;;;12;50
30343;BME280;17145;49.902;8.680;'2023-05-02 07:31:51';100460;;;12;50
30343;BME280;17145;49.902;8.680;'2023-05-02 07:34:18';100470;;;12;51
30343;BME280;17145;49.902;8.680;'2023-05-02 07:36:45';100470;;;12;50
30343;BME280;17145;49.902;8.680;'2023-05-02 07:39:13';100480;;;12;50
30343;BME280;17145;49.902;8.680;'2023-05-02 07:41:40';100480;;;12;50
30343;BME280;17145;49.902;8.680;'2023-05-02 07:44:07';100490;;;12;50
30343;BME280;17145;49.902;8.680;'2023-05-02 07:46:35';100490;;;12;50
30343;BME280;17145;49.902;8.680;'2023-05-02 07:49:02';100500;;;13;49
30343;BME280;17145;49.902;8.680;'2023-05-02 07:51:30';100500;;;12;49
30343;BME280;17145;49.902;8.680;'2023-05-02 07:53:57';100500;;;12;49
30343;BME280;17145;49.902;8.680;'2023-05-02 07:56:25';100500;;;12;49
30343;BME280;17145;49.902;8.680;'2023-05-02 07:58:52';100500;;;13;49
30343;BME280;17145;49.902;8.680;'2023-05-02 08:01:19';100500;;;13;49
30343;BME280;17145;49.902;8.680;'2023-05-02 08:03:47';100510;;;13;49
30343;BME280;17145;49.902;8.680;'2023-05-02 08:06:15';100510;;;13;49
30343;BME280;17145;49.902;8.680;'2023-05-02 08:08:42';100510;;;13;49
30343;BME280;17145;49.902;8.680;'2023-05-02 08:11:10';100510;;;13;49
30343;BME280;17145;49.902;8.680;'2023-05-02 08:13:37';100510;;;13;48
30343;BME280;17145;49.902;8.680;'2023-05-02 08:16:05';100510;;;13;48
30343;BME280;17145;49.902;8.680;'2023-05-02 08:18:33';100510;;;13;48
30343;BME280;17145;49.902;8.680;'2023-05-02 08:21:03';100520;;;13;48
30343;BME280;17145;49.902;8.680;'2023-05-02 08:23:30';100520;;;13;48
30343;BME280;17145;49.902;8.680;'2023-05-02 08:25:59';100520;;;13;48
30343;BME280;17145;49.902;8.680;'2023-05-02 08:28:26';100530;;;13;48
30343;BME280;17145;49.902;8.680;'2023-05-02 08:30:58';100530;;;13;48
30343;BME280;17145;49.902;8.680;'2023-05-02 08:33:25';100540;;;13;47
30343;BME280;17145;49.902;8.680;'2023-05-02 08:35:53';100540;;;13;47
30343;BME280;17145;49.902;8.680;'2023-05-02 08:38:20';100540;;;13;47
30343;BME280;17145;49.902;8.680;'2023-05-02 08:40:48';100540;;;13;47
30343;BME280;17145;49.902;8.680;'2023-05-02 08:43:17';100540;;;13;47
30343;BME280;17145;49.902;8.680;'2023-05-02 08:45:44';100550;;;14;46
30343;BME280;17145;49.902;8.680;'2023-05-02 08:48:12';100550;;;13;46
30343;BME280;17145;49.902;8.680;'2023-05-02 08:50:39';100550;;;13;46
30343;BME280;17145;49.902;8.680;'2023-05-02 08:53:06';100550;;;13;46
30343;BME280;17145;49.902;8.680;'2023-05-02 08:55:34';100560;;;14;46
30343;BME280;17145;49.902;8.680;'2023-05-02 08:58:01';100560;;;13;45
30343;BME280;17145;49.902;8.680;'2023-05-02 09:00:29';100560;;;14;45
30343;BME280;17145;49.902;8.680;'2023-05-02 09:02:56';100560;;;14;45
30343;BME280;17145;49.902;8.680;'2023-05-02 09:05:23';100560;;;14;45
30343;BME280;17145;49.902;8.680;'2023-05-02 09:07:51';100560;;;14;45
30343;BME280;17145;49.902;8.680;'2023-05-02 09:10:18';100560;;;13;46
30343;BME280;17145;49.902;8.680;'2023-05-02 09:12:45';100570;;;14;46
30343;BME280;17145;49.902;8.680;'2023-05-02 09:15:13';100570;;;14;45
30343;BME280;17145;49.902;8.680;'2023-05-02 09:17:40';100580;;;14;45
30343;BME280;17145;49.902;8.680;'2023-05-02 09:20:09';100580;;;14;45
30343;BME280;17145;49.902;8.680;'2023-05-02 09:22:36';100580;;;14;45
30343;BME280;17145;49.902;8.680;'2023-05-02 09:25:04';100590;;;14;45
30343;BME280;17145;49.902;8.680;'2023-05-02 09:27:32';100590;;;14;45
30343;BME280;17145;49.902;8.680;'2023-05-02 09:29:59';100590;;;14;45
30343;BME280;17145;49.902;8.680;'2023-05-02 09:32:26';100590;;;14;45
30343;BME280;17145;49.902;8.680;'2023-05-02 09:34:54';100590;;;14;46
30343;BME280;17145;49.902;8.680;'2023-05-02 09:37:21';100590;;;14;44
30343;BME280;17145;49.902;8.680;'2023-05-02 09:39:49';100590;;;14;45
30343;BME280;17145;49.902;8.680;'2023-05-02 09:42:16';100590;;;14;45
30343;BME280;17145;49.902;8.680;'2023-05-02 09:44:44';100590;;;14;45
30343;BME280;17145;49.902;8.680;'2023-05-02 09:47:11';100590;;;14;45
30343;BME280;17145;49.902;8.680;'2023-05-02 09:49:38';100590;;;14;44
30343;BME280;17145;49.902;8.680;'2023-05-02 09:52:06';100600;;;14;44
30343;BME280;17145;49.902;8.680;'2023-05-02 09:54:33';100600;;;14;44
30343;BME280;17145;49.902;8.680;'2023-05-02 09:57:01';100600;;;14;44
30343;BME280;17145;49.902;8.680;'2023-05-02 09:59:29';100600;;;14;44
30343;BME280;17145;49.902;8.680;'2023-05-02 10:01:57';100610;;;14;43
30343;BME280;17145;49.902;8.680;'2023-05-02 10:04:24';100610;;;14;42
30343;BME280;17145;49.902;8.680;'2023-05-02 10:06:53';100610;;;14;43
30343;BME280;17145;49.902;8.680;'2023-05-02 10:09:21';100610;;;15;42
30343;BME280;17145;49.902;8.680;'2023-05-02 10:11:48';100610;;;15;43
30343;BME280;17145;49.902;8.680;'2023-05-02 10:14:15';100610;;;15;42
30343;BME280;17145;49.902;8.680;'2023-05-02 10:16:43';100610;;;15;42
30343;BME280;17145;49.902;8.680;'2023-05-02 10:19:10';100610;;;15;42
30343;BME280;17145;49.902;8.680;'2023-05-02 10:21:38';100610;;;15;42
30343;BME280;17145;49.902;8.680;'2023-05-02 10:24:05';100610;;;16;42
30343;BME280;17145;49.902;8.680;'2023-05-02 10:26:32';100610;;;15;41
30343;BME280;17145;49.902;8.680;'2023-05-02 10:29:00';100610;;;15;40
30343;BME280;17145;49.902;8.680;'2023-05-02 10:31:27';100620;;;16;40
30343;BME280;17145;49.902;8.680;'2023-05-02 10:33:54';100630;;;15;40
30343;BME280;17145;49.902;8.680;'2023-05-02 10:36:22';100630;;;15;40
30343;BME280;17145;49.902;8.680;'2023-05-02 10:38:49';100630;;;14;40
30343;BME280;17145;49.902;8.680;'2023-05-02 10:41:18';100640;;;15;40
30343;BME280;17145;49.902;8.680;'2023-05-02 10:43:46';100640;;;14;41
30343;BME280;17145;49.902;8.680;'2023-05-02 10:46:15';100640;;;14;41
30343;BME280;17145;49.902;8.680;'2023-05-02 10:48:44';100640;;;14;41
30343;BME280;17145;49.902;8.680;'2023-05-02 10:51:14';100640;;;14;41
30343;BME280;17145;49.902;8.680;'2023-05-02 10:53:42';100640;;;14;41
30343;BME280;17145;49.902;8.680;'2023-05-02 10:56:11';100650;;;14;41
30343;BME280;17145;49.902;8.680;'2023-05-02 10:58:40';100660;;;14;41
30343;BME280;17145;49.902;8.680;'2023-05-02 11:01:12';100660;;;14;41
30343;BME280;17145;49.902;8.680;'2023-05-02 11:03:41';100660;;;14;41
30343;BME280;17145;49.902;8.680;'2023-05-02 11:06:11';100660;;;14;42
30343;BME280;17145;49.902;8.680;'2023-05-02 11:08:40';100660;;;14;42
30343;BME280;17145;49.902;8.680;'2023-05-02 11:11:09';100670;;;14;41
30343;BME280;17145;49.902;8.680;'2023-05-02 11:13:39';100670;;;14;41
30343;BME280;17145;49.902;8.680;'2023-05-02 11:16:07';100670;;;15;41
30343;BME280;17145;49.902;8.680;'2023-05-02 11:18:36';100680;;;15;41
30343;BME280;17145;49.902;8.680;'2023-05-02 11:21:06';100680;;;15;42
30343;BME280;17145;49.902;8.680;'2023-05-02 11:23:35';100680;;;15;41
30343;BME280;17145;49.902;8.680;'2023-05-02 11:26:10';100690;;;15;41
30343;BME280;17145;49.902;8.680;'2023-05-02 11:28:39';100690;;;15;40
30343;BME280;17145;49.902;8.680;'2023-05-02 11:31:09';100690;;;15;41
30343;BME280;17145;49.902;8.680;'2023-05-02 11:33:37';100690;;;15;40
30343;BME280;17145;49.902;8.680;'2023-05-02 11:36:05';100690;;;15;41
30343;BME280;17145;49.902;8.680;'2023-05-02 11:38:33';100690;;;15;41
30343;BME280;17145;49.902;8.680;'2023-05-02 11:41:00';100700;;;15;41
30343;BME280;17145;49.902;8.680;'2023-05-02 11:43:28';100700;;;15;40
30343;BME280;17145;49.902;8.680;'2023-05-02 11:45:57';100700;;;15;40
30343;BME280;17145;49.902;8.680;'2023-05-02 11:48:26';100700;;;15;40
30343;BME280;17145;49.902;8.680;'2023-05-02 11:50:54';100700;;;15;39
30343;BME280;17145;49.902;8.680;'2023-05-02 11:53:24';100700;;;15;39
30343;BME280;17145;49.902;8.680;'2023-05-02 11:56:00';100700;;;15;39
30343;BME280;17145;49.902;8.680;'2023-05-02 11:58:27';100700;;;15;39
30343;BME280;17145;49.902;8.680;'2023-05-02 12:00:56';100700;;;15;39
30343;BME280;17145;49.902;8.680;'2023-05-02 12:03:25';100700;;;15;39
30343;BME280;17145;49.902;8.680;'2023-05-02 12:05:54';100700;;;16;39
30343;BME280;17145;49.902;8.680;'2023-05-02 12:08:24';100690;;;16;40
30343;BME280;17145;49.902;8.680;'2023-05-02 12:10:54';100690;;;16;39
30343;BME280;17145;49.902;8.680;'2023-05-02 12:13:22';100690;;;16;39
30343;BME280;17145;49.902;8.680;'2023-05-02 12:15:58';100700;;;16;38
30343;BME280;17145;49.902;8.680;'2023-05-02 12:18:28';100700;;;16;38
30343;BME280;17145;49.902;8.680;'2023-05-02 12:20:57';100700;;;16;39
30343;BME280;17145;49.902;8.680;'2023-05-02 12:23:26';100690;;;17;38
30343;BME280;17145;49.902;8.680;'2023-05-02 12:25:54';100690;;;16;37
30343;BME280;17145;49.902;8.680;'2023-05-02 12:28:22';100690;;;16;37
30343;BME280;17145;49.902;8.680;'2023-05-02 12:30:50';100690;;;16;38
30343;BME280;17145;49.902;8.680;'2023-05-02 12:33:20';100690;;;16;38
30343;BME280;17145;49.902;8.680;'2023-05-02 12:35:48';100700;;;16;37
30343;BME280;17145;49.902;8.680;'2023-05-02 12:38:18';100690;;;16;37
30343;BME280;17145;49.902;8.680;'2023-05-02 12:40:51';100690;;;16;38
30343;BME280;17145;49.902;8.680;'2023-05-02 12:43:19';100690;;;16;37
30343;BME280;17145;49.902;8.680;'2023-05-02 12:45:47';100690;;;17;37
30343;BME280;17145;49.902;8.680;'2023-05-02 12:48:17';100690;;;17;36
30343;BME280;17145;49.902;8.680;'2023-05-02 12:50:46';100690;;;17;35
30343;BME280;17145;49.902;8.680;'2023-05-02 12:53:26';100690;;;17;35
30343;BME280;17145;49.902;8.680;'2023-05-02 12:56:12';100680;;;17;35
30343;BME280;17145;49.902;8.680;'2023-05-02 13:01:27';100680;;;17;34
30343;BME280;17145;49.902;8.680;'2023-05-02 13:03:56';100680;;;17;35
30343;BME280;17145;49.902;8.680;'2023-05-02 13:06:25';100680;;;16;35
30343;BME280;17145;49.902;8.680;'2023-05-02 13:08:58';100680;;;16;36
30343;BME280;17145;49.902;8.680;'2023-05-02 13:11:39';100680;;;17;36
30343;BME280;17145;49.902;8.680;'2023-05-02 13:16:49';100680;;;16;37
30343;BME280;17145;49.902;8.680;'2023-05-02 13:19:16';100680;;;16;36
30343;BME280;17145;49.902;8.680;'2023-05-02 13:27:12';100680;;;17;34
30343;BME280;17145;49.902;8.680;'2023-05-02 13:29:50';100680;;;17;34
30343;BME280;17145;49.902;8.680;'2023-05-02 13:32:18';100670;;;18;35
30343;BME280;17145;49.902;8.680;'2023-05-02 13:34:46';100660;;;18;34
30343;BME280;17145;49.902;8.680;'2023-05-02 13:37:14';100660;;;19;32
30343;BME280;17145;49.902;8.680;'2023-05-02 13:39:42';100660;;;19;32
30343;BME280;17145;49.902;8.680;'2023-05-02 13:44:51';100660;;;19;30
30343;BME280;17145;49.902;8.680;'2023-05-02 13:47:19';100660;;;20;30
30343;BME280;17145;49.902;8.680;'2023-05-02 13:49:46';100660;;;20;31
30343;BME280;17145;49.902;8.680;'2023-05-02 13:52:14';100660;;;19;30
30343;BME280;17145;49.902;8.680;'2023-05-02 13:54:42';100650;;;20;29
30343;BME280;17145;49.902;8.680;'2023-05-02 13:59:48';100650;;;20;30
30343;BME280;17145;49.902;8.680;'2023-05-02 14:02:16';100650;;;20;31
30343;BME280;17145;49.902;8.680;'2023-05-02 14:04:43';100650;;;20;30
30343;BME280;17145;49.902;8.680;'2023-05-02 14:07:11';100650;;;21;31
30343;BME280;17145;49.902;8.680;'2023-05-02 14:09:49';100650;;;21;30
30343;BME280;17145;49.902;8.680;'2023-05-02 14:12:19';100650;;;21;28
30343;BME280;17145;49.902;8.680;'2023-05-02 14:14:46';100650;;;20;28
30343;BME280;17145;49.902;8.680;'2023-05-02 14:17:14';100640;;;20;28
30343;BME280;17145;49.902;8.680;'2023-05-02 14:19:42';100650;;;19;29
30343;BME280;17145;49.902;8.680;'2023-05-02 14:22:10';100640;;;20;30
30343;BME280;17145;49.902;8.680;'2023-05-02 14:24:38';100640;;;20;29
30343;BME280;17145;49.902;8.680;'2023-05-02 14:27:10';100640;;;20;28
30343;BME280;17145;49.902;8.680;'2023-05-02 14:29:39';100640;;;21;27
30343;BME280;17145;49.902;8.680;'2023-05-02 14:32:06';100640;;;21;27
30343;BME280;17145;49.902;8.680;'2023-05-02 14:34:35';100650;;;21;27
30343;BME280;17145;49.902;8.680;'2023-05-02 14:37:02';100650;;;21;27
30343;BME280;17145;49.902;8.680;'2023-05-02 14:39:36';100650;;;21;27
30343;BME280;17145;49.902;8.680;'2023-05-02 14:42:09';100650;;;20;27
30343;BME280;17145;49.902;8.680;'2023-05-02 14:44:37';100650;;;20;28
30343;BME280;17145;49.902;8.680;'2023-05-02 14:47:04';100650;;;19;27
30343;BME280;17145;49.902;8.680;'2023-05-02 14:49:32';100660;;;19;28
30343;BME280;17145;49.902;8.680;'2023-05-02 14:52:00';100660;;;19;28
30343;BME280;17145;49.902;8.680;'2023-05-02 14:54:27';100660;;;18;28
30343;BME280;17145;49.902;8.680;'2023-05-02 14:56:54';100670;;;18;29
30343;BME280;17145;49.902;8.680;'2023-05-02 14:59:26';100670;;;18;29
30343;BME280;17145;49.902;8.680;'2023-05-02 15:01:54';100660;;;18;29
30343;BME280;17145;49.902;8.680;'2023-05-02 15:04:21';100670;;;19;30
30343;BME280;17145;49.902;8.680;'2023-05-02 15:06:48';100670;;;19;29
30343;BME280;17145;49.902;8.680;'2023-05-02 15:09:16';100670;;;20;29
30343;BME280;17145;49.902;8.680;'2023-05-02 15:11:43';100680;;;19;30
30343;BME280;17145;49.902;8.680;'2023-05-02 15:14:11';100670;;;19;31
30343;BME280;17145;49.902;8.680;'2023-05-02 15:16:38';100680;;;19;31
30343;BME280;17145;49.902;8.680;'2023-05-02 15:19:05';100680;;;19;31
30343;BME280;17145;49.902;8.680;'2023-05-02 15:21:33';100680;;;19;31
30343;BME280;17145;49.902;8.680;'2023-05-02 15:24:00';100680;;;20;30
30343;BME280;17145;49.902;8.680;'2023-05-02 15:26:27';100680;;;20;29
30343;BME280;17145;49.902;8.680;'2023-05-02 15:28:55';100670;;;20;29
30343;BME280;17145;49.902;8.680;'2023-05-02 15:31:22';100670;;;20;29
30343;BME280;17145;49.902;8.680;'2023-05-02 15:33:49';100670;;;20;29
30343;BME280;17145;49.902;8.680;'2023-05-02 15:36:17';100670;;;20;29
30343;BME280;17145;49.902;8.680;'2023-05-02 15:38:45';100670;;;20;29
30343;BME280;17145;49.902;8.680;'2023-05-02 15:41:12';100670;;;20;29
30343;BME280;17145;49.902;8.680;'2023-05-02 15:43:40';100670;;;20;29
30343;BME280;17145;49.902;8.680;'2023-05-02 15:46:07';100670;;;21;28
30343;BME280;17145;49.902;8.680;'2023-05-02 15:48:35';100670;;;21;27
30343;BME280;17145;49.902;8.680;'2023-05-02 15:51:02';100670;;;21;28
30343;BME280;17145;49.902;8.680;'2023-05-02 15:53:30';100670;;;22;29
30343;BME280;17145;49.902;8.680;'2023-05-02 15:55:57';100670;;;22;27
30343;BME280;17145;49.902;8.680;'2023-05-02 15:58:24';100680;;;22;27
30343;BME280;17145;49.902;8.680;'2023-05-02 16:00:52';100680;;;22;26
30343;BME280;17145;49.902;8.680;'2023-05-02 16:03:19';100680;;;22;26
30343;BME280;17145;49.902;8.680;'2023-05-02 16:05:47';100690;;;21;26
30343;BME280;17145;49.902;8.680;'2023-05-02 16:08:14';100690;;;20;27
30343;BME280;17145;49.902;8.680;'2023-05-02 16:10:42';100690;;;20;28
30343;BME280;17145;49.902;8.680;'2023-05-02 16:13:09';100700;;;19;31
30343;BME280;17145;49.902;8.680;'2023-05-02 16:15:36';100690;;;19;32
30343;BME280;17145;49.902;8.680;'2023-05-02 16:18:04';100700;;;18;35
30343;BME280;17145;49.902;8.680;'2023-05-02 16:20:31';100700;;;18;35
30343;BME280;17145;49.902;8.680;'2023-05-02 16:22:59';100700;;;18;35
30343;BME280;17145;49.902;8.680;'2023-05-02 16:25:26';100700;;;17;36
30343;BME280;17145;49.902;8.680;'2023-05-02 16:27:53';100700;;;17;34
30343;BME280;17145;49.902;8.680;'2023-05-02 16:30:20';100700;;;18;35